»·PEaware :: N800DW KSFB-MYNN

N800DW :: KSFB-MYNN

FLIGHT INFORMATION

Flight Status: Arrived
Operator: Privately registered:
United States
More flights under this callsign
Pilot: Scott L. (17677)
Aircraft: PIPER PA-30 TWIN COMANCHE
(PA30)
More flights by this aircraft type
Origin: KSFB Orlando Sanford
United States
Destination: MYNN Nassau Intl
Bahamas
More flights between these airports :: More routes between these airports
Route: OVIDO V51 TRV V295 HILEY
File this flight plan on PilotEdge
Remarks:
Altitude:
(Current/Filed)
11,500ft
Speed:
(Current/Filed)
190kts
Departed: 25-Jul-18 07:16 AM
Arrived: 25-Jul-18 09:55 AM
Distance/Time
Traveled:
301nm/2:39
Distance/Time
To Go:
Arrived

Flight Plot

Page will automatically refresh every two minutes.

Flight plan parsing failed; only flown route is shown


Map Options




Map Legend


Flown Route
Filed Route
Departure Airport
Arrival Airport
Navaid (VOR, NDB)
Fix

Horizontal Profiles

Position Reports

Time Latitude Longitude Heading Altitude Ground
Speed
25-Jul-18 07:16 43.166655 -99.469169 139 11894ft 168kts
25-Jul-18 07:17 43.139338 -99.412741 135 11283ft 200kts
25-Jul-18 07:18 43.094728 -99.394235 212 10738ft 169kts
25-Jul-18 07:19 43.100798 -99.442808 346 9897ft 192kts
25-Jul-18 07:20 43.113165 -99.391373 164 8788ft 190kts
25-Jul-18 07:21 43.114400 -99.424084 10 7684ft 210kts
25-Jul-18 07:22 43.104924 -99.387371 233 6605ft 168kts
25-Jul-18 07:23 43.138875 -99.405692 9 6933ft 167kts
25-Jul-18 07:24 43.166819 -99.432428 258 7565ft 124kts
25-Jul-18 07:25 43.138802 -99.447212 157 8134ft 143kts
25-Jul-18 07:26 43.128557 -99.393496 69 8655ft 168kts
25-Jul-18 07:27 43.162518 -99.355696 6 9232ft 156kts
25-Jul-18 07:28 43.165587 -99.354848 2 9271ft 155kts
25-Jul-18 07:29 28.542910 -81.339048 66 107ft 0kts
25-Jul-18 07:30 28.542910 -81.339048 66 107ft 0kts
25-Jul-18 07:31 28.542910 -81.339048 66 107ft 0kts
25-Jul-18 07:32 28.542910 -81.339048 66 107ft 0kts
25-Jul-18 07:33 28.542910 -81.339048 66 107ft 0kts
25-Jul-18 07:34 28.542910 -81.339048 66 107ft 0kts
25-Jul-18 07:35 28.542910 -81.339048 66 107ft 0kts
25-Jul-18 07:36 28.542910 -81.339048 66 107ft 0kts
25-Jul-18 07:37 28.542910 -81.339048 66 107ft 0kts
25-Jul-18 07:38 28.542910 -81.339048 66 107ft 0kts
25-Jul-18 07:39 28.542911 -81.339019 94 107ft 0kts
25-Jul-18 07:40 28.542939 -81.338887 78 107ft 0kts
25-Jul-18 07:41 28.550443 -81.320117 94 878ft 91kts
25-Jul-18 07:42 28.536162 -81.300366 139 2494ft 81kts
25-Jul-18 07:43 28.520231 -81.282663 139 3863ft 81kts
25-Jul-18 07:44 28.504465 -81.264889 139 5122ft 80kts
25-Jul-18 07:45 28.488912 -81.247139 139 6272ft 80kts
25-Jul-18 07:46 28.473384 -81.229225 139 7347ft 80kts
25-Jul-18 07:47 28.457931 -81.211250 139 8350ft 80kts
25-Jul-18 07:48 28.442530 -81.193174 139 9285ft 80kts
25-Jul-18 07:49 28.427143 -81.174971 139 10157ft 80kts
25-Jul-18 07:50 28.411807 -81.156714 138 10974ft 80kts
25-Jul-18 07:51 28.396488 -81.138374 138 11748ft 80kts
25-Jul-18 07:52 28.381278 -81.120053 138 12474ft 80kts
25-Jul-18 07:53 28.366146 -81.101782 138 13160ft 79kts
25-Jul-18 07:54 28.344969 -81.077385 138 13178ft 130kts
25-Jul-18 07:55 28.317953 -81.047011 138 13173ft 140kts
25-Jul-18 07:56 28.289986 -81.015658 138 13171ft 142kts
25-Jul-18 07:57 28.261145 -80.985085 143 13171ft 141kts
25-Jul-18 07:58 28.230653 -80.956868 143 13171ft 141kts
25-Jul-18 07:59 28.200218 -80.928717 143 13180ft 141kts
25-Jul-18 08:00 28.169841 -80.900580 143 13180ft 141kts
25-Jul-18 08:01 28.139414 -80.872402 143 13180ft 141kts
25-Jul-18 08:02 28.108646 -80.844690 146 13180ft 141kts
25-Jul-18 08:03 28.075567 -80.820992 150 13180ft 140kts
25-Jul-18 08:04 28.042203 -80.797710 150 13179ft 140kts
25-Jul-18 08:05 28.009313 -80.774763 150 13179ft 140kts
25-Jul-18 08:06 27.975319 -80.752590 152 13180ft 143kts
25-Jul-18 08:07 27.940361 -80.730291 152 13179ft 145kts
25-Jul-18 08:08 27.905087 -80.707820 152 13179ft 145kts
25-Jul-18 08:09 27.892099 -80.699542 152 13187ft 145kts
25-Jul-18 08:10 27.865551 -80.682623 152 13192ft 146kts
25-Jul-18 08:11 27.830178 -80.660079 152 13192ft 146kts
25-Jul-18 08:12 27.794780 -80.637492 150 13191ft 146kts
25-Jul-18 08:13 27.762894 -80.608692 142 13191ft 147kts
25-Jul-18 08:14 27.731267 -80.579487 143 13199ft 146kts
25-Jul-18 08:15 27.699704 -80.550331 143 13200ft 147kts
25-Jul-18 08:16 27.668130 -80.521029 143 13200ft 147kts
25-Jul-18 08:17 27.636486 -80.491785 143 13200ft 147kts
25-Jul-18 08:18 27.604872 -80.462569 142 13200ft 147kts
25-Jul-18 08:19 27.573118 -80.433214 143 13200ft 147kts
25-Jul-18 08:20 27.543621 -80.400887 140 13200ft 148kts
25-Jul-18 08:21 27.512450 -80.370670 142 13199ft 148kts
25-Jul-18 08:22 27.483368 -80.343566 143 13200ft 147kts
25-Jul-18 08:23 27.451605 -80.314223 143 13200ft 147kts
25-Jul-18 08:24 27.419834 -80.284947 143 13200ft 147kts
25-Jul-18 08:25 27.388043 -80.255688 143 13199ft 147kts
25-Jul-18 08:26 27.356247 -80.226443 143 13199ft 147kts
25-Jul-18 08:27 27.324534 -80.197218 143 13199ft 147kts
25-Jul-18 08:28 27.292778 -80.168076 143 13199ft 147kts
25-Jul-18 08:29 27.261061 -80.139020 143 13207ft 147kts
25-Jul-18 08:30 27.229230 -80.109932 146 13207ft 147kts
25-Jul-18 08:31 27.189363 -80.106774 180 13208ft 146kts
25-Jul-18 08:32 27.149055 -80.102019 173 13208ft 146kts
25-Jul-18 08:33 27.108664 -80.097695 174 13207ft 146kts
25-Jul-18 08:34 27.068238 -80.093620 174 13207ft 146kts
25-Jul-18 08:35 27.027873 -80.089600 174 13207ft 146kts
25-Jul-18 08:36 26.987420 -80.085587 174 13207ft 146kts
25-Jul-18 08:37 26.947013 -80.081583 174 13207ft 146kts
25-Jul-18 08:38 26.906632 -80.077585 174 13207ft 146kts
25-Jul-18 08:39 26.869230 -80.073882 174 13210ft 146kts
25-Jul-18 08:40 26.828664 -80.069872 174 13210ft 146kts
25-Jul-18 08:41 26.788128 -80.065865 174 13210ft 146kts
25-Jul-18 08:42 26.747489 -80.061854 174 13210ft 146kts
25-Jul-18 08:43 26.706869 -80.057846 174 13210ft 146kts
25-Jul-18 08:44 26.666241 -80.053838 174 13209ft 146kts
25-Jul-18 08:45 26.625674 -80.049841 174 13209ft 146kts
25-Jul-18 08:46 26.585056 -80.045882 174 13206ft 146kts
25-Jul-18 08:47 26.544524 -80.041950 174 13203ft 146kts
25-Jul-18 08:48 26.503816 -80.038006 174 13200ft 146kts
25-Jul-18 08:49 26.463343 -80.034089 174 13189ft 147kts
25-Jul-18 08:50 26.422732 -80.030161 174 13184ft 146kts
25-Jul-18 08:51 26.382103 -80.026234 174 13181ft 146kts
25-Jul-18 08:52 26.341496 -80.022314 174 13178ft 146kts
25-Jul-18 08:53 26.301001 -80.018403 174 13175ft 146kts
25-Jul-18 08:54 26.260699 -80.013246 157 13170ft 146kts
25-Jul-18 08:55 26.236710 -79.976360 121 13170ft 151kts
25-Jul-18 08:56 26.217195 -79.934823 121 13166ft 151kts
25-Jul-18 08:57 26.197771 -79.893217 121 13164ft 151kts
25-Jul-18 08:58 26.178319 -79.851536 121 13161ft 151kts
25-Jul-18 08:59 26.158928 -79.810018 121 13158ft 151kts
25-Jul-18 09:00 26.139509 -79.768481 121 13155ft 151kts
25-Jul-18 09:01 26.120566 -79.727997 121 13152ft 151kts
25-Jul-18 09:02 26.101174 -79.686593 121 13149ft 151kts
25-Jul-18 09:03 26.081921 -79.645530 121 13148ft 150kts
25-Jul-18 09:04 26.062489 -79.604127 121 13144ft 152kts
25-Jul-18 09:05 26.042423 -79.561339 121 13139ft 157kts
25-Jul-18 09:06 26.022145 -79.518151 121 13136ft 158kts
25-Jul-18 09:07 26.001753 -79.474795 121 13133ft 158kts
25-Jul-18 09:08 25.981303 -79.431370 121 13130ft 158kts
25-Jul-18 09:09 25.960971 -79.388237 121 13127ft 158kts
25-Jul-18 09:10 25.940681 -79.345237 121 13125ft 158kts
25-Jul-18 09:11 25.920247 -79.301983 121 13122ft 158kts
25-Jul-18 09:12 25.903208 -79.265939 121 13119ft 158kts
25-Jul-18 09:13 25.882794 -79.222786 121 13120ft 159kts
25-Jul-18 09:14 25.862300 -79.179505 121 13121ft 159kts
25-Jul-18 09:15 25.841753 -79.136170 121 13133ft 159kts
25-Jul-18 09:16 25.821140 -79.092723 121 13130ft 159kts
25-Jul-18 09:17 25.800535 -79.049343 121 13127ft 159kts
25-Jul-18 09:18 25.779893 -79.005928 121 13124ft 159kts
25-Jul-18 09:19 25.759247 -78.962545 121 13124ft 159kts
25-Jul-18 09:20 25.738616 -78.919245 121 13128ft 159kts
25-Jul-18 09:21 25.717908 -78.875815 121 13125ft 159kts
25-Jul-18 09:22 25.697278 -78.832590 121 13123ft 159kts
25-Jul-18 09:23 25.677585 -78.791368 121 13120ft 159kts
25-Jul-18 09:24 25.656843 -78.747993 121 13117ft 159kts
25-Jul-18 09:25 25.636139 -78.704740 121 13115ft 159kts
25-Jul-18 09:26 25.615423 -78.661503 121 13112ft 159kts
25-Jul-18 09:27 25.594679 -78.618251 121 13109ft 159kts
25-Jul-18 09:28 25.573910 -78.574982 121 13107ft 159kts
25-Jul-18 09:29 25.553167 -78.531818 121 13104ft 159kts
25-Jul-18 09:30 25.532408 -78.488658 121 13101ft 159kts
25-Jul-18 09:31 25.511618 -78.445472 121 13099ft 159kts
25-Jul-18 09:32 25.490815 -78.402300 121 13096ft 159kts
25-Jul-18 09:33 25.470002 -78.359147 121 13093ft 159kts
25-Jul-18 09:34 25.449500 -78.316702 121 12901ft 169kts
25-Jul-18 09:35 25.426545 -78.268791 121 12221ft 179kts
25-Jul-18 09:36 25.402934 -78.219826 121 11546ft 181kts
25-Jul-18 09:37 25.379061 -78.170528 121 10658ft 194kts
25-Jul-18 09:38 25.354070 -78.118789 121 9796ft 185kts
25-Jul-18 09:39 25.329733 -78.068748 121 9106ft 184kts
25-Jul-18 09:40 25.305462 -78.018802 121 8408ft 185kts
25-Jul-18 09:41 25.281103 -77.968727 120 7699ft 185kts
25-Jul-18 09:42 25.257577 -77.918005 118 6966ft 186kts
25-Jul-18 09:43 25.233139 -77.866871 120 6057ft 186kts
25-Jul-18 09:44 25.209427 -77.818358 121 5305ft 165kts
25-Jul-18 09:45 25.187685 -77.780370 134 4548ft 154kts
25-Jul-18 09:46 25.159601 -77.745247 132 3730ft 152kts
25-Jul-18 09:47 25.132109 -77.709844 132 2906ft 152kts
25-Jul-18 09:48 25.112721 -77.669767 104 2388ft 146kts
25-Jul-18 09:49 25.115817 -77.624780 75 2384ft 150kts
25-Jul-18 09:50 25.117155 -77.583556 117 2381ft 138kts
25-Jul-18 09:51 25.104451 -77.548974 119 1664ft 103kts
25-Jul-18 09:52 25.091343 -77.518810 113 872ft 101kts
25-Jul-18 09:53 25.073296 -77.499081 143 641ft 81kts
25-Jul-18 09:54 25.060009 -77.484113 145 419ft 64kts
25-Jul-18 09:55 25.045843 -77.469037 136 19ft 43kts
25-Jul-18 09:56 25.045697 -77.463416 32 19ft 10kts
25-Jul-18 09:57 25.046022 -77.463454 343 19ft 0kts
25-Jul-18 09:58 25.046022 -77.463454 343 19ft 0kts
25-Jul-18 09:59 25.046022 -77.463454 343 19ft 0kts
25-Jul-18 10:00 25.046022 -77.463454 343 19ft 0kts
25-Jul-18 10:01 25.046022 -77.463454 343 19ft 0kts
25-Jul-18 10:02 25.046022 -77.463454 343 19ft 0kts
25-Jul-18 10:03 25.046022 -77.463454 343 19ft 0kts
25-Jul-18 10:04 25.046022 -77.463454 343 19ft 0kts
25-Jul-18 10:05 25.046022 -77.463454 343 19ft 0kts
25-Jul-18 10:06 25.046022 -77.463454 343 19ft 0kts
25-Jul-18 10:07 25.046022 -77.463454 343 19ft 0kts
25-Jul-18 10:08 25.046022 -77.463454 343 19ft 0kts
25-Jul-18 10:09 25.046022 -77.463454 343 19ft 0kts
25-Jul-18 10:10 25.046022 -77.463454 343 19ft 0kts

Navigation Log

Ident Type
Flight plan parsing failed, navigation log unavailable